Time;durP1;ratioP1;P1;durP2;ratioP2;P2;SDS_P1;SDS_P2;PMS_P1;PMS_P2;Temp;Humidity;BMP_temperature;BMP_pressure;BME280_temperature;BME280_humidity;BME280_pressure;Samples;Min_cycle;Max_cycle;Signal;HPM_P1;HPM_P2
2023/11/08 00:00:07;;;;;;;4.60;2.47;;;;;;;3.97;nan;96064.91;2042038;29;20039;-53
2023/11/08 00:01:16;;;;;;;3.90;2.20;;;;;;;3.97;nan;96046.06;2042033;29;20052;-53
2023/11/08 00:02:18;;;;;;;7.57;3.03;;;;;;;3.96;nan;96060.66;2041199;29;20070;-52
2023/11/08 00:03:20;;;;;;;11.27;4.35;;;;;;;3.90;nan;96054.78;2041803;29;20059;-53
2023/11/08 00:04:21;;;;;;;7.68;2.85;;;;;;;3.85;nan;96056.59;2041189;29;20496;-53
2023/11/08 00:05:23;;;;;;;4.45;1.83;;;;;;;3.90;nan;96049.63;2041743;29;20510;-53
2023/11/08 00:06:24;;;;;;;4.28;2.47;;;;;;;3.92;nan;96056.44;2041417;29;20067;-53
2023/11/08 00:07:25;;;;;;;3.78;1.67;;;;;;;3.92;nan;96045.31;2041625;29;20062;-53
2023/11/08 00:08:26;;;;;;;5.82;3.20;;;;;;;3.93;nan;96058.16;2042045;29;20040;-52
2023/11/08 00:09:27;;;;;;;6.03;2.65;;;;;;;3.92;nan;96051.28;2041930;29;20067;-53
2023/11/08 00:10:30;;;;;;;6.05;2.80;;;;;;;4.01;nan;96041.72;2041752;29;20946;-52
2023/11/08 00:11:32;;;;;;;4.32;1.85;;;;;;;3.98;nan;96045.19;2041641;29;20392;-53
2023/11/08 00:12:33;;;;;;;6.50;3.17;;;;;;;3.97;nan;96044.34;2041760;29;20091;-53
2023/11/08 00:13:34;;;;;;;5.25;2.60;;;;;;;3.94;nan;96048.72;2041210;29;20055;-53
2023/11/08 00:14:35;;;;;;;4.70;2.63;;;;;;;3.94;nan;96054.69;2041156;29;20054;-53
2023/11/08 00:15:36;;;;;;;4.15;2.50;;;;;;;3.90;nan;96041.94;2042006;29;20058;-53
2023/11/08 00:16:37;;;;;;;4.95;3.10;;;;;;;3.86;nan;96048.03;2041840;29;20047;-53
2023/11/08 00:17:39;;;;;;;6.70;3.38;;;;;;;3.81;nan;96055.81;2041732;29;20062;-53
2023/11/08 00:18:40;;;;;;;3.90;2.13;;;;;;;3.83;nan;96042.94;2041508;29;20060;-53
2023/11/08 00:19:41;;;;;;;4.95;2.33;;;;;;;3.82;nan;96049.78;2041882;29;20055;-53
2023/11/08 00:20:42;;;;;;;3.35;1.60;;;;;;;3.79;nan;96043.88;2041740;29;20055;-53
2023/11/08 00:21:43;;;;;;;6.65;2.78;;;;;;;3.85;nan;96046.31;2042002;29;20044;-53
2023/11/08 00:22:45;;;;;;;5.43;2.42;;;;;;;3.78;nan;96037.88;2041684;29;20055;-53
2023/11/08 00:23:46;;;;;;;3.60;2.03;;;;;;;3.84;nan;96049.75;2043254;29;20044;-53
2023/11/08 00:24:47;;;;;;;3.03;1.42;;;;;;;3.82;nan;96052.34;2044152;29;20412;-52
2023/11/08 00:25:48;;;;;;;5.53;2.30;;;;;;;3.80;nan;96049.00;2044338;29;20404;-53
2023/11/08 00:26:49;;;;;;;5.97;2.17;;;;;;;3.85;nan;96051.44;2044163;29;20051;-53
2023/11/08 00:27:50;;;;;;;5.40;2.75;;;;;;;3.85;nan;96048.88;2044235;29;20051;-53
2023/11/08 00:28:51;;;;;;;4.55;2.38;;;;;;;3.82;nan;96052.34;2035851;29;20064;-52
2023/11/08 00:29:52;;;;;;;3.97;1.85;;;;;;;3.81;nan;96048.09;2027974;29;20053;-53
2023/11/08 00:30:54;;;;;;;5.85;2.45;;;;;;;3.88;nan;96051.41;2035790;29;20515;-53
2023/11/08 00:31:55;;;;;;;5.82;2.55;;;;;;;3.87;nan;96047.97;2043659;29;20062;-52
2023/11/08 00:32:56;;;;;;;5.18;2.92;;;;;;;3.84;nan;96052.34;2044422;29;20403;-52
2023/11/08 00:33:57;;;;;;;6.65;2.75;;;;;;;3.78;nan;96055.03;2044253;29;20099;-53
2023/11/08 00:34:58;;;;;;;3.97;2.25;;;;;;;3.72;nan;96051.72;2044675;29;20365;-52
2023/11/08 00:35:59;;;;;;;5.05;2.70;;;;;;;3.80;nan;96050.72;2043972;29;20411;-53
2023/11/08 00:37:00;;;;;;;5.15;2.10;;;;;;;3.86;nan;96046.28;2044307;29;20512;-53
2023/11/08 00:38:02;;;;;;;6.75;2.50;;;;;;;3.86;nan;96050.59;2044489;29;20058;-53
2023/11/08 00:39:03;;;;;;;5.22;2.42;;;;;;;3.76;nan;96055.88;2044350;29;20051;-53
2023/11/08 00:40:06;;;;;;;5.82;2.28;;;;;;;3.78;nan;96053.31;2044610;29;20485;-53
2023/11/08 00:41:07;;;;;;;4.90;2.28;;;;;;;3.78;nan;96047.34;2044685;29;20055;-52
2023/11/08 00:42:08;;;;;;;3.42;1.67;;;;;;;3.75;nan;96051.66;2044329;29;20051;-53
2023/11/08 00:43:10;;;;;;;4.40;2.33;;;;;;;3.76;nan;96055.88;2036071;29;20060;-53
2023/11/08 00:44:12;;;;;;;5.53;2.20;;;;;;;3.70;nan;96050.03;2028047;29;20441;-53
2023/11/08 00:45:13;;;;;;;3.10;1.25;;;;;;;3.71;nan;96057.69;2028378;29;20394;-53
2023/11/08 00:46:14;;;;;;;3.95;2.70;;;;;;;3.71;nan;96046.59;2035798;29;20055;-52
2023/11/08 00:47:16;;;;;;;5.50;2.08;;;;;;;3.67;nan;96050.94;2043555;29;20055;-53
2023/11/08 00:48:17;;;;;;;3.08;1.90;;;;;;;3.69;nan;96054.34;2044603;29;20044;-54
2023/11/08 00:49:19;;;;;;;4.68;2.20;;;;;;;3.79;nan;96056.72;2043765;29;20407;-53
2023/11/08 00:50:21;;;;;;;5.65;2.35;;;;;;;3.81;nan;96054.97;2044325;29;20055;-53
2023/11/08 00:51:22;;;;;;;3.60;1.75;;;;;;;3.81;nan;96058.38;2044213;29;20447;-53
2023/11/08 00:52:24;;;;;;;3.85;2.05;;;;;;;3.85;nan;96057.47;2044397;29;20079;-52
2023/11/08 00:53:26;;;;;;;3.47;2.13;;;;;;;3.85;nan;96056.59;2042905;29;20455;-52
2023/11/08 00:54:27;;;;;;;4.90;2.45;;;;;;;3.83;nan;96054.06;2043668;29;20051;-51
2023/11/08 00:55:28;;;;;;;4.47;2.00;;;;;;;3.84;nan;96060.88;2036224;29;20070;-53
2023/11/08 00:56:30;;;;;;;4.50;2.17;;;;;;;3.84;nan;96049.75;2034675;29;20413;-53
2023/11/08 00:57:31;;;;;;;4.15;2.22;;;;;;;3.85;nan;96059.16;2043870;29;20056;-53
2023/11/08 00:58:32;;;;;;;3.90;1.75;;;;;;;3.91;nan;96064.19;2036179;29;20400;-53
2023/11/08 00:59:34;;;;;;;4.72;1.73;;;;;;;3.90;nan;96062.47;2035209;29;20067;-53
2023/11/08 01:00:35;;;;;;;1.77;1.13;;;;;;;3.93;nan;96067.59;2044271;29;20051;-53
2023/11/08 01:01:36;;;;;;;5.07;1.88;;;;;;;3.90;nan;96042.81;2044222;29;20044;-53
2023/11/08 01:02:38;;;;;;;6.72;2.00;;;;;;;3.98;nan;96060.59;2035394;29;20481;-53
2023/11/08 01:03:39;;;;;;;5.03;1.70;;;;;;;4.00;nan;96052.88;2035480;29;20056;-52
2023/11/08 01:04:40;;;;;;;5.90;2.08;;;;;;;4.03;nan;96051.06;2043875;29;20052;-52
2023/11/08 01:05:41;;;;;;;4.75;1.73;;;;;;;4.05;nan;96059.59;2044194;29;20036;-53
2023/11/08 01:06:43;;;;;;;3.50;1.52;;;;;;;4.04;nan;96049.38;2035572;29;20052;-53
2023/11/08 01:07:44;;;;;;;7.07;1.80;;;;;;;4.07;nan;96057.84;2035193;29;20067;-53
2023/11/08 01:08:45;;;;;;;3.70;1.48;;;;;;;4.06;nan;96060.44;2043726;29;20484;-52
2023/11/08 01:09:46;;;;;;;4.65;1.77;;;;;;;4.03;nan;96063.94;2044440;29;20043;-53
2023/11/08 01:10:48;;;;;;;3.30;1.20;;;;;;;4.07;nan;96060.44;2035951;29;20071;-53
2023/11/08 01:11:49;;;;;;;2.92;1.63;;;;;;;4.06;nan;96055.31;2035589;29;20048;-53
2023/11/08 01:12:50;;;;;;;3.25;1.45;;;;;;;4.10;nan;96056.94;2036017;29;20445;-53
2023/11/08 01:13:52;;;;;;;2.33;1.23;;;;;;;4.13;nan;96054.31;2035812;29;20110;-53
2023/11/08 01:14:53;;;;;;;3.05;1.27;;;;;;;4.12;nan;96050.91;2044288;29;20391;-53
2023/11/08 01:15:54;;;;;;;3.63;1.33;;;;;;;4.15;nan;96055.97;2044146;29;20055;-53
2023/11/08 01:16:55;;;;;;;2.63;1.30;;;;;;;4.13;nan;96055.16;2044342;29;20052;-54
2023/11/08 01:17:56;;;;;;;2.83;1.20;;;;;;;4.14;nan;96048.28;2044182;29;20050;-53
2023/11/08 01:18:57;;;;;;;2.75;0.93;;;;;;;4.17;nan;96061.06;2044251;29;20047;-53
2023/11/08 01:19:58;;;;;;;2.90;1.60;;;;;;;4.20;nan;96059.28;2044128;29;20055;-52
2023/11/08 01:20:59;;;;;;;3.67;1.48;;;;;;;4.21;nan;96055.00;2043938;29;20060;-53
2023/11/08 01:22:01;;;;;;;6.22;1.50;;;;;;;4.20;nan;96051.59;2035652;29;20515;-53
2023/11/08 01:23:02;;;;;;;3.22;1.25;;;;;;;4.22;nan;96055.84;2036040;29;20048;-53
2023/11/08 01:24:04;;;;;;;3.92;1.33;;;;;;;4.22;nan;96048.13;2044453;29;20051;-53
2023/11/08 01:25:06;;;;;;;8.27;1.80;;;;;;;4.19;nan;96054.19;2043728;29;20067;-53
2023/11/08 01:26:08;;;;;;;2.25;1.10;;;;;;;4.16;nan;96049.94;2044353;29;20058;-53
2023/11/08 01:27:09;;;;;;;3.05;1.27;;;;;;;4.14;nan;96046.59;2044199;29;20054;-53
2023/11/08 01:28:11;;;;;;;3.85;1.33;;;;;;;4.12;nan;96045.75;2043771;29;20075;-53
2023/11/08 01:29:12;;;;;;;3.03;1.60;;;;;;;4.15;nan;96050.00;2044239;29;20056;-53
2023/11/08 01:30:13;;;;;;;6.75;1.65;;;;;;;4.10;nan;96049.25;2044249;29;20047;-53
2023/11/08 01:31:14;;;;;;;3.22;1.67;;;;;;;4.06;nan;96051.00;2043330;29;20063;-53
2023/11/08 01:32:16;;;;;;;4.03;1.60;;;;;;;4.07;nan;96046.75;2035582;29;20052;-52
2023/11/08 01:33:17;;;;;;;3.28;1.33;;;;;;;4.09;nan;96053.53;2035654;29;20060;-53
2023/11/08 01:34:19;;;;;;;4.63;1.65;;;;;;;4.08;nan;96043.28;2044093;29;20066;-53
2023/11/08 01:35:20;;;;;;;4.88;1.50;;;;;;;4.07;nan;96036.47;2042489;29;20479;-53
2023/11/08 01:36:21;;;;;;;2.13;1.40;;;;;;;4.11;nan;96045.78;2042731;29;20053;-53
2023/11/08 01:37:22;;;;;;;3.92;1.33;;;;;;;4.13;nan;96038.88;2042348;29;20419;-53
2023/11/08 01:38:23;;;;;;;3.80;1.63;;;;;;;4.12;nan;96042.34;2042746;29;20051;-53
2023/11/08 01:39:24;;;;;;;4.65;1.20;;;;;;;4.11;nan;96046.63;2034356;29;20063;-53
2023/11/08 01:40:26;;;;;;;7.97;1.92;;;;;;;4.08;nan;96046.69;2034541;29;20064;-53
2023/11/08 01:41:28;;;;;;;4.72;1.55;;;;;;;4.03;nan;96048.50;2043268;29;20067;-53
2023/11/08 01:42:29;;;;;;;4.53;1.45;;;;;;;4.01;nan;96049.41;2043136;29;20460;-53
2023/11/08 01:43:31;;;;;;;7.97;1.80;;;;;;;3.97;nan;96038.38;2042241;29;20051;-53
2023/11/08 01:44:32;;;;;;;3.97;1.77;;;;;;;3.93;nan;96037.59;2043086;29;20461;-52
2023/11/08 01:45:33;;;;;;;3.35;1.42;;;;;;;3.95;nan;96038.38;2042745;29;20499;-53
2023/11/08 01:46:35;;;;;;;7.63;1.48;;;;;;;3.90;nan;96052.19;2042987;29;20051;-53
2023/11/08 01:47:36;;;;;;;3.85;1.45;;;;;;;3.88;nan;96043.72;2042795;29;20479;-53
2023/11/08 01:48:39;;;;;;;2.78;1.65;;;;;;;3.79;nan;96039.56;2019047;29;20049;-53
2023/11/08 01:49:40;;;;;;;2.30;1.27;;;;;;;3.78;nan;96042.19;2011934;29;20057;-52
2023/11/08 01:50:41;;;;;;;2.95;1.52;;;;;;;3.69;nan;96044.06;2026817;29;20055;-53
2023/11/08 01:51:43;;;;;;;2.83;1.70;;;;;;;3.66;nan;96041.56;2034504;29;20040;-52
2023/11/08 01:52:44;;;;;;;3.00;1.33;;;;;;;3.67;nan;96043.25;2041990;29;20500;-53
2023/11/08 01:53:45;;;;;;;4.53;1.20;;;;;;;3.57;nan;96041.72;2034616;29;20056;-52
2023/11/08 01:54:49;;;;;;;4.45;1.42;;;;;;;3.61;nan;96045.94;2026608;29;20049;-52
2023/11/08 01:55:51;;;;;;;3.35;1.40;;;;;;;3.54;nan;96037.50;2026657;29;20437;-53
2023/11/08 01:56:52;;;;;;;7.10;1.90;;;;;;;3.52;nan;96043.53;2019198;29;20056;-53
2023/11/08 01:57:53;;;;;;;5.97;1.77;;;;;;;3.45;nan;96050.50;2026666;29;20049;-52
2023/11/08 01:58:54;;;;;;;2.75;1.40;;;;;;;3.37;nan;96054.06;2018380;29;20068;-53
2023/11/08 01:59:57;;;;;;;2.85;1.27;;;;;;;3.39;nan;96052.31;2026801;29;20059;-54
2023/11/08 02:00:58;;;;;;;4.47;2.05;;;;;;;3.29;nan;96046.53;2026827;29;20084;-53
2023/11/08 02:01:59;;;;;;;4.90;1.63;;;;;;;3.33;nan;96050.72;2026697;29;20064;-53
2023/11/08 02:03:01;;;;;;;5.07;1.95;;;;;;;3.39;nan;96054.91;2026392;29;20048;-53
2023/11/08 02:04:02;;;;;;;6.70;1.95;;;;;;;3.28;nan;96053.38;2026620;29;20396;-53
2023/11/08 02:05:05;;;;;;;4.50;1.30;;;;;;;3.22;nan;96047.50;2033889;29;20412;-53
2023/11/08 02:06:07;;;;;;;4.50;1.80;;;;;;;3.18;nan;96046.72;2026334;29;20048;-53
2023/11/08 02:07:08;;;;;;;7.75;1.35;;;;;;;3.18;nan;96053.56;2026499;29;20517;-53
2023/11/08 02:08:10;;;;;;;4.75;1.83;;;;;;;3.18;nan;96051.84;2034196;29;20044;-52
2023/11/08 02:09:11;;;;;;;4.20;1.52;;;;;;;3.14;nan;96050.19;2034427;29;20051;-53
2023/11/08 02:10:14;;;;;;;4.30;1.42;;;;;;;3.14;nan;96041.66;2034416;29;20060;-53
2023/11/08 02:11:15;;;;;;;3.05;1.55;;;;;;;3.08;nan;96051.16;2034444;29;20047;-53
2023/11/08 02:12:16;;;;;;;4.07;1.27;;;;;;;3.03;nan;96047.81;2042589;29;20051;-53
2023/11/08 02:13:17;;;;;;;3.33;1.33;;;;;;;3.03;nan;96044.41;2042819;29;20047;-53
2023/11/08 02:14:19;;;;;;;3.63;1.30;;;;;;;3.04;nan;96046.09;2034434;29;20493;-53
2023/11/08 02:15:20;;;;;;;4.00;1.38;;;;;;;3.03;nan;96042.69;2026880;29;20056;-53
2023/11/08 02:16:21;;;;;;;5.63;1.30;;;;;;;3.03;nan;96044.41;2034125;29;20408;-52
2023/11/08 02:17:22;;;;;;;4.05;1.50;;;;;;;3.04;nan;96048.66;2041652;29;20064;-52
2023/11/08 02:18:23;;;;;;;3.28;1.20;;;;;;;3.05;nan;96032.41;2042304;29;20131;-53
2023/11/08 02:19:25;;;;;;;3.58;1.33;;;;;;;3.12;nan;96033.97;2042634;29;20530;-53
2023/11/08 02:20:26;;;;;;;3.60;1.33;;;;;;;3.20;nan;96034.69;2042227;29;20060;-53
2023/11/08 02:21:27;;;;;;;5.70;1.63;;;;;;;3.19;nan;96037.31;2042518;29;20411;-53
2023/11/08 02:22:30;;;;;;;4.75;1.50;;;;;;;3.16;nan;96037.34;2042720;29;20054;-53
2023/11/08 02:23:31;;;;;;;4.18;1.40;;;;;;;3.16;nan;96035.63;2034050;29;20048;-53
2023/11/08 02:24:32;;;;;;;5.90;1.35;;;;;;;3.24;nan;96038.06;2034082;29;20484;-53
2023/11/08 02:25:33;;;;;;;3.80;1.30;;;;;;;3.29;nan;96042.25;2042443;29;20055;-53
2023/11/08 02:26:34;;;;;;;3.85;1.08;;;;;;;3.34;nan;96033.59;2042007;29;20078;-52
2023/11/08 02:27:35;;;;;;;5.00;1.30;;;;;;;3.39;nan;96042.06;2042674;29;20035;-53
2023/11/08 02:28:37;;;;;;;5.50;1.45;;;;;;;3.41;nan;96037.75;2041950;29;20051;-53
2023/11/08 02:29:38;;;;;;;3.20;1.23;;;;;;;3.41;nan;96032.63;2033480;29;20052;-52
2023/11/08 02:30:39;;;;;;;1.83;1.02;;;;;;;3.48;nan;96034.22;2025948;29;20053;-53
2023/11/08 02:31:40;;;;;;;4.05;1.27;;;;;;;3.53;nan;96037.53;2026383;29;20059;-53
2023/11/08 02:32:41;;;;;;;4.10;1.38;;;;;;;3.53;nan;96034.97;2033439;29;20044;-52
2023/11/08 02:33:42;;;;;;;3.45;1.05;;;;;;;3.53;nan;96034.97;2034321;29;20100;-53
2023/11/08 02:34:43;;;;;;;6.78;1.58;;;;;;;3.58;nan;96033.13;2033864;29;20051;-53
2023/11/08 02:35:45;;;;;;;5.57;1.15;;;;;;;3.59;nan;96039.97;2034170;29;20048;-52
2023/11/08 02:36:46;;;;;;;4.45;1.73;;;;;;;3.57;nan;96036.59;2034001;29;20059;-53
2023/11/08 02:37:48;;;;;;;2.75;1.35;;;;;;;3.53;nan;96029.84;2042510;29;20396;-53
2023/11/08 02:38:49;;;;;;;6.75;1.50;;;;;;;3.60;nan;96036.53;2034123;29;20043;-52
2023/11/08 02:39:50;;;;;;;2.60;1.17;;;;;;;3.61;nan;96035.66;2034197;29;20067;-53
2023/11/08 02:40:51;;;;;;;5.90;1.20;;;;;;;3.58;nan;96040.84;2033912;29;20052;-52
2023/11/08 02:41:52;;;;;;;2.50;1.30;;;;;;;3.52;nan;96039.22;2034081;29;20366;-53
2023/11/08 02:42:53;;;;;;;5.15;1.38;;;;;;;3.52;nan;96036.66;2042331;29;20040;-52
2023/11/08 02:43:54;;;;;;;4.55;1.60;;;;;;;3.53;nan;96038.38;2042372;29;20058;-52
2023/11/08 02:44:55;;;;;;;2.15;0.90;;;;;;;3.51;nan;96040.13;2033769;29;20056;-52
2023/11/08 02:45:56;;;;;;;4.25;1.30;;;;;;;3.50;nan;96032.44;2034163;29;20056;-53
2023/11/08 02:46:58;;;;;;;3.10;1.30;;;;;;;3.52;nan;96035.81;2041558;29;20124;-53
2023/11/08 02:48:01;;;;;;;5.22;1.20;;;;;;;3.52;nan;96034.09;2034077;29;20052;-53
2023/11/08 02:49:03;;;;;;;4.35;1.20;;;;;;;3.57;nan;96039.16;2033937;29;20064;-53
2023/11/08 02:50:05;;;;;;;3.15;1.02;;;;;;;3.57;nan;96031.44;2042546;29;20054;-53
2023/11/08 02:51:07;;;;;;;3.85;1.33;;;;;;;3.53;nan;96027.25;2042377;29;20055;-53
2023/11/08 02:52:08;;;;;;;3.20;1.27;;;;;;;3.58;nan;96025.44;2033426;29;20062;-53
2023/11/08 02:53:09;;;;;;;3.33;1.50;;;;;;;3.63;nan;96031.31;2033789;29;20496;-52
2023/11/08 02:54:10;;;;;;;4.60;1.38;;;;;;;3.66;nan;96026.16;2033845;29;20051;-53
2023/11/08 02:55:12;;;;;;;3.53;1.00;;;;;;;3.62;nan;96021.94;2034161;29;20043;-53
2023/11/08 02:56:15;;;;;;;3.30;1.45;;;;;;;3.68;nan;96021.81;2042536;29;20058;-53
2023/11/08 02:57:18;;;;;;;3.08;1.30;;;;;;;3.68;nan;96023.53;2041925;29;20499;-52
2023/11/08 02:58:19;;;;;;;3.22;1.60;;;;;;;3.68;nan;96021.81;2042561;29;20066;-53
2023/11/08 02:59:20;;;;;;;7.45;1.30;;;;;;;3.68;nan;96024.38;2042594;29;20058;-53
2023/11/08 03:00:21;;;;;;;2.83;1.20;;;;;;;3.64;nan;96015.06;2042310;29;20043;-53
2023/11/08 03:01:23;;;;;;;2.10;1.00;;;;;;;3.69;nan;96015.81;2041671;29;20066;-53
2023/11/08 03:02:24;;;;;;;5.05;1.30;;;;;;;3.80;nan;96014.75;2042285;29;20070;-54
2023/11/08 03:03:26;;;;;;;4.72;1.20;;;;;;;3.78;nan;96022.47;2042535;29;20491;-52
2023/11/08 03:04:30;;;;;;;2.88;1.65;;;;;;;3.74;nan;96025.97;2033465;29;20416;-53
2023/11/08 03:05:32;;;;;;;4.82;1.23;;;;;;;3.74;nan;96023.41;2034173;29;20044;-53
2023/11/08 03:06:33;;;;;;;6.38;1.50;;;;;;;3.78;nan;96025.06;2042106;29;20048;-53
2023/11/08 03:07:35;;;;;;;3.15;1.23;;;;;;;3.78;nan;96009.63;2033733;29;20513;-53
2023/11/08 03:08:36;;;;;;;2.95;1.30;;;;;;;3.81;nan;96029.28;2033881;29;20054;-52
2023/11/08 03:09:37;;;;;;;4.03;1.20;;;;;;;3.78;nan;96016.50;2041812;29;20060;-53
2023/11/08 03:10:38;;;;;;;1.55;0.93;;;;;;;3.76;nan;96019.94;2042111;29;20396;-53
2023/11/08 03:11:39;;;;;;;3.13;1.17;;;;;;;3.75;nan;96020.81;2042228;29;20047;-52
2023/11/08 03:12:40;;;;;;;3.88;1.45;;;;;;;3.72;nan;96022.63;2042124;29;20396;-52
2023/11/08 03:13:41;;;;;;;2.80;1.10;;;;;;;3.69;nan;96013.25;2042049;29;20055;-53
2023/11/08 03:14:43;;;;;;;2.28;1.20;;;;;;;3.63;nan;96008.22;2034007;29;20396;-53
2023/11/08 03:15:44;;;;;;;5.30;1.38;;;;;;;3.63;nan;96010.78;2034034;29;20077;-56
2023/11/08 03:16:45;;;;;;;3.10;1.23;;;;;;;3.60;nan;96015.97;2041919;29;20082;-52
2023/11/08 03:17:46;;;;;;;3.38;1.30;;;;;;;3.56;nan;96016.94;2042350;29;20040;-53
2023/11/08 03:18:47;;;;;;;1.52;1.10;;;;;;;3.52;nan;96028.13;2042103;29;20043;-53
2023/11/08 03:19:49;;;;;;;5.53;1.63;;;;;;;3.48;nan;96029.06;2033588;29;20052;-52
2023/11/08 03:20:50;;;;;;;3.25;1.17;;;;;;;3.46;nan;96025.69;2033237;29;20423;-52
2023/11/08 03:21:53;;;;;;;2.42;1.23;;;;;;;3.44;nan;96028.25;2033932;29;20055;-53
2023/11/08 03:22:54;;;;;;;3.83;1.20;;;;;;;3.43;nan;96028.31;2033805;29;20056;-53
2023/11/08 03:23:55;;;;;;;2.80;1.40;;;;;;;3.43;nan;96029.16;2042256;29;20071;-53
2023/11/08 03:24:56;;;;;;;5.30;1.40;;;;;;;3.43;nan;96034.28;2042221;29;20039;-53
2023/11/08 03:25:57;;;;;;;3.00;1.30;;;;;;;3.39;nan;96040.34;2042147;29;20063;-53
2023/11/08 03:26:58;;;;;;;3.00;1.50;;;;;;;3.31;nan;96035.38;2041633;29;20056;-52
2023/11/08 03:27:59;;;;;;;2.33;1.38;;;;;;;3.33;nan;96035.31;2042016;29;20051;-53
2023/11/08 03:29:00;;;;;;;4.45;1.20;;;;;;;3.32;nan;96036.22;2042319;29;20494;-53
2023/11/08 03:30:01;;;;;;;3.97;1.30;;;;;;;3.30;nan;96033.66;2041958;29;20055;-53
2023/11/08 03:31:03;;;;;;;4.88;1.50;;;;;;;3.34;nan;96037.00;2041914;29;20063;-53
2023/11/08 03:32:04;;;;;;;3.22;1.48;;;;;;;3.26;nan;96033.72;2041991;29;20408;-53
2023/11/08 03:33:06;;;;;;;2.67;1.33;;;;;;;3.24;nan;96035.50;2041637;29;20056;-53
2023/11/08 03:34:07;;;;;;;5.00;1.40;;;;;;;3.26;nan;96036.28;2041634;29;20388;-53
2023/11/08 03:35:08;;;;;;;2.40;1.42;;;;;;;3.27;nan;96031.16;2042057;29;20067;-53
2023/11/08 03:36:10;;;;;;;2.85;1.20;;;;;;;3.25;nan;96042.31;2041997;29;20047;-53
2023/11/08 03:37:11;;;;;;;4.07;1.60;;;;;;;3.25;nan;96042.31;2041926;29;20047;-53
2023/11/08 03:38:12;;;;;;;3.80;1.13;;;;;;;3.20;nan;96047.53;2041721;29;20415;-53
2023/11/08 03:39:13;;;;;;;4.13;1.70;;;;;;;3.14;nan;96042.50;2041808;29;20048;-52
2023/11/08 03:40:15;;;;;;;3.58;1.75;;;;;;;3.09;nan;96041.72;2042323;29;20407;-54
2023/11/08 03:41:16;;;;;;;4.45;1.70;;;;;;;3.04;nan;96046.09;2042091;29;20054;-53
2023/11/08 03:42:17;;;;;;;3.20;1.30;;;;;;;3.00;nan;96047.03;2041592;29;20055;-53
2023/11/08 03:43:18;;;;;;;4.43;1.70;;;;;;;2.97;nan;96045.38;2041879;29;20055;-53
2023/11/08 03:44:19;;;;;;;4.13;1.50;;;;;;;2.93;nan;96050.56;2042117;29;20054;-52
2023/11/08 03:45:21;;;;;;;5.15;1.45;;;;;;;2.85;nan;96046.41;2042086;29;20040;-52
2023/11/08 03:46:22;;;;;;;3.17;1.80;;;;;;;2.84;nan;96049.00;2042075;29;20047;-52
2023/11/08 03:47:23;;;;;;;4.28;1.52;;;;;;;2.83;nan;96053.28;2042056;29;20058;-53
2023/11/08 03:48:24;;;;;;;3.75;1.80;;;;;;;2.80;nan;96045.63;2041189;29;20071;-54
2023/11/08 03:49:26;;;;;;;2.95;1.60;;;;;;;2.79;nan;96056.75;2041924;29;20062;-52
2023/11/08 03:50:27;;;;;;;3.65;1.75;;;;;;;2.78;nan;96057.66;2041592;29;20070;-53
2023/11/08 03:51:28;;;;;;;2.78;1.60;;;;;;;2.79;nan;96063.63;2041576;29;20376;-52
2023/11/08 03:52:30;;;;;;;5.72;1.73;;;;;;;2.74;nan;96061.13;2041844;29;20062;-52
2023/11/08 03:53:31;;;;;;;6.00;1.80;;;;;;;2.73;nan;96063.72;2041777;29;20042;-53
2023/11/08 03:54:33;;;;;;;5.32;1.55;;;;;;;2.73;nan;96066.28;2041558;29;20048;-53
2023/11/08 03:55:35;;;;;;;3.85;1.33;;;;;;;2.79;nan;96061.06;2042080;29;20392;-52
2023/11/08 03:56:36;;;;;;;3.47;1.40;;;;;;;2.81;nan;96057.59;2042156;29;20052;-52
2023/11/08 03:57:37;;;;;;;3.55;1.70;;;;;;;2.85;nan;96063.50;2042160;29;20503;-52
2023/11/08 03:58:38;;;;;;;5.20;2.05;;;;;;;2.83;nan;96058.41;2041273;29;20055;-53
2023/11/08 03:59:39;;;;;;;3.90;1.77;;;;;;;2.91;nan;96072.81;2042064;29;20490;-52
2023/11/08 04:00:41;;;;;;;3.95;2.05;;;;;;;2.93;nan;96063.38;2041998;29;20056;-52
2023/11/08 04:01:43;;;;;;;6.20;1.58;;;;;;;2.95;nan;96066.78;2041891;29;20043;-53
2023/11/08 04:02:44;;;;;;;3.00;1.60;;;;;;;2.96;nan;96060.78;2041783;29;20530;-52
2023/11/08 04:03:46;;;;;;;4.60;1.83;;;;;;;2.97;nan;96065.06;2041838;29;20036;-52
2023/11/08 04:04:49;;;;;;;4.15;1.60;;;;;;;2.98;nan;96072.69;2041842;29;20052;-53
2023/11/08 04:05:52;;;;;;;2.85;1.50;;;;;;;2.97;nan;96071.03;2041596;29;20117;-52
2023/11/08 04:06:53;;;;;;;5.50;1.98;;;;;;;2.95;nan;96066.78;2042217;29;20087;-52
2023/11/08 04:07:56;;;;;;;2.75;1.20;;;;;;;2.93;nan;96071.09;2041407;29;20051;-53
2023/11/08 04:08:57;;;;;;;3.95;1.55;;;;;;;2.96;nan;96077.00;2041343;29;20051;-53
2023/11/08 04:09:58;;;;;;;4.60;1.58;;;;;;;2.99;nan;96070.97;2041930;29;20063;-54
2023/11/08 04:10:59;;;;;;;5.00;1.63;;;;;;;2.98;nan;96071.84;2041523;29;20063;-52
2023/11/08 04:12:01;;;;;;;2.90;1.52;;;;;;;2.97;nan;96075.31;2041517;29;20055;-53
2023/11/08 04:13:02;;;;;;;3.63;1.52;;;;;;;3.05;nan;96073.47;2041906;29;20403;-53
2023/11/08 04:14:03;;;;;;;5.40;1.65;;;;;;;3.08;nan;96074.25;2041876;29;20050;-53
2023/11/08 04:15:04;;;;;;;2.55;1.30;;;;;;;3.07;nan;96064.88;2041512;29;20482;-52
2023/11/08 04:16:06;;;;;;;3.15;1.42;;;;;;;3.12;nan;96071.63;2041658;29;20055;-52
2023/11/08 04:17:10;;;;;;;4.22;1.58;;;;;;;3.15;nan;96076.72;2041736;29;20476;-53
2023/11/08 04:18:11;;;;;;;4.28;1.42;;;;;;;3.15;nan;96077.53;2041743;29;20482;-53
2023/11/08 04:19:12;;;;;;;1.77;1.17;;;;;;;3.15;nan;96074.97;2041254;29;20051;-53
2023/11/08 04:20:14;;;;;;;4.85;1.67;;;;;;;3.13;nan;96071.63;2041699;29;20407;-53
2023/11/08 04:21:15;;;;;;;3.13;1.52;;;;;;;3.12;nan;96072.47;2041961;29;20051;-52
2023/11/08 04:22:17;;;;;;;5.13;1.50;;;;;;;3.12;nan;96072.47;2041225;29;20067;-53
2023/11/08 04:23:18;;;;;;;4.97;1.50;;;;;;;3.12;nan;96074.19;2041419;29;20060;-52
2023/11/08 04:24:19;;;;;;;3.08;1.50;;;;;;;3.14;nan;96075.03;2041857;29;20055;-52
2023/11/08 04:25:21;;;;;;;4.28;1.60;;;;;;;3.15;nan;96081.84;2041402;29;20060;-53
2023/11/08 04:26:22;;;;;;;2.30;1.20;;;;;;;3.13;nan;96081.88;2041733;29;20058;-53
2023/11/08 04:27:23;;;;;;;2.50;1.20;;;;;;;3.12;nan;96076.75;2041478;29;20392;-53
2023/11/08 04:28:24;;;;;;;2.85;1.25;;;;;;;3.13;nan;96079.31;2042092;29;20087;-53
2023/11/08 04:29:25;;;;;;;5.68;1.75;;;;;;;3.13;nan;96078.44;2041916;29;20047;-54
2023/11/08 04:30:26;;;;;;;2.70;1.33;;;;;;;3.14;nan;96075.88;2041655;29;20055;-52
2023/11/08 04:31:27;;;;;;;3.92;1.33;;;;;;;3.17;nan;96087.78;2041941;29;20059;-53
2023/11/08 04:32:29;;;;;;;4.13;1.38;;;;;;;3.17;nan;96087.78;2041463;29;20062;-52
2023/11/08 04:33:30;;;;;;;3.13;1.58;;;;;;;3.17;nan;96091.19;2041878;29;20044;-53
2023/11/08 04:34:31;;;;;;;3.47;1.77;;;;;;;3.18;nan;96082.66;2041672;29;20491;-52
2023/11/08 04:35:32;;;;;;;4.07;1.50;;;;;;;3.19;nan;96079.19;2041310;29;20054;-53
2023/11/08 04:36:33;;;;;;;5.47;1.50;;;;;;;3.19;nan;96079.19;2041762;29;20377;-53
2023/11/08 04:37:34;;;;;;;4.03;1.40;;;;;;;3.20;nan;96080.88;2041121;29;20052;-53
2023/11/08 04:38:35;;;;;;;3.50;1.58;;;;;;;3.20;nan;96080.03;2041537;29;20054;-53
2023/11/08 04:39:37;;;;;;;3.92;1.70;;;;;;;3.22;nan;96084.28;2041503;29;20424;-53
2023/11/08 04:40:38;;;;;;;5.55;1.60;;;;;;;3.22;nan;96080.88;2041908;29;20047;-53
2023/11/08 04:41:39;;;;;;;3.40;1.60;;;;;;;3.21;nan;96080.03;2041830;29;20055;-53
2023/11/08 04:42:40;;;;;;;3.60;1.23;;;;;;;3.22;nan;96081.72;2041873;29;20043;-53
2023/11/08 04:43:42;;;;;;;4.65;1.60;;;;;;;3.22;nan;96083.44;2041847;29;20047;-53
2023/11/08 04:44:49;;;;;;;3.72;1.25;;;;;;;3.22;nan;96076.56;2041859;29;20047;-52
2023/11/08 04:45:50;;;;;;;5.10;1.58;;;;;;;3.25;nan;96081.66;2042129;29;20043;-53
2023/11/08 04:46:51;;;;;;;3.75;1.30;;;;;;;3.25;nan;96086.78;2041461;29;20051;-53
2023/11/08 04:47:52;;;;;;;4.22;1.60;;;;;;;3.28;nan;96081.59;2041783;29;20404;-52
2023/11/08 04:48:53;;;;;;;3.90;1.40;;;;;;;3.26;nan;96078.22;2041414;29;20157;-52
2023/11/08 04:49:55;;;;;;;3.40;1.60;;;;;;;3.27;nan;96085.03;2041232;29;20048;-52
2023/11/08 04:50:56;;;;;;;5.03;1.40;;;;;;;3.26;nan;96085.94;2041671;29;20047;-53
2023/11/08 04:51:57;;;;;;;3.80;1.42;;;;;;;3.26;nan;96085.94;2041675;29;20078;-53
2023/11/08 04:52:58;;;;;;;3.05;1.77;;;;;;;3.21;nan;96085.16;2041846;29;20388;-53
2023/11/08 04:53:59;;;;;;;4.55;2.00;;;;;;;3.22;nan;96089.41;2041784;29;20055;-53
2023/11/08 04:55:01;;;;;;;2.88;1.55;;;;;;;3.22;nan;96086.84;2041405;29;20071;-53
2023/11/08 04:56:02;;;;;;;4.57;1.60;;;;;;;3.18;nan;96087.78;2041513;29;20044;-52
2023/11/08 04:57:03;;;;;;;4.15;1.67;;;;;;;3.15;nan;96087.81;2041630;29;20039;-53
2023/11/08 04:58:04;;;;;;;2.70;1.30;;;;;;;3.14;nan;96087.84;2041633;29;20051;-52
2023/11/08 04:59:11;;;;;;;2.47;1.25;;;;;;;3.16;nan;96089.53;2041259;29;20059;-53